Time;durP1;ratioP1;P1;durP2;ratioP2;P2;SDS_P1;SDS_P2;PMS_P1;PMS_P2;Temp;Humidity;BMP_temperature;BMP_pressure;BME280_temperature;BME280_humidity;BME280_pressure;Samples;Min_cycle;Max_cycle;Signal;HPM_P1;HPM_P2
2022/02/28 00:01:25;;;;;;;31.50;12.10;;;;;;;0.38;60.34;100374.25;105996;1274;95157;-70
2022/02/28 00:03:56;;;;;;;30.00;9.80;;;;;;;0.39;60.37;100374.59;105997;1274;109152;-69
2022/02/28 00:06:28;;;;;;;24.80;9.20;;;;;;;0.39;60.30;100370.58;106008;1274;97993;-67
2022/02/28 00:08:58;;;;;;;26.40;9.00;;;;;;;0.39;60.39;100372.31;105984;1274;108877;-69
2022/02/28 00:11:29;;;;;;;25.90;9.10;;;;;;;0.41;60.35;100370.20;105994;1274;97950;-68
2022/02/28 00:13:57;;;;;;;23.90;9.00;;;;;;;0.40;60.42;100367.77;106030;1274;95281;-68
2022/02/28 00:16:27;;;;;;;23.30;8.40;;;;;;;0.40;60.33;100369.16;106024;1274;112518;-69
2022/02/28 00:18:57;;;;;;;24.60;9.20;;;;;;;0.41;60.35;100366.36;105994;1274;95167;-69
2022/02/28 00:21:25;;;;;;;24.20;8.50;;;;;;;0.43;60.36;100362.49;105969;1274;108343;-70
2022/02/28 00:23:57;;;;;;;24.40;7.80;;;;;;;0.42;60.38;100359.36;105979;1274;96551;-67
2022/02/28 00:26:25;;;;;;;26.70;7.90;;;;;;;0.44;60.33;100361.09;106045;1274;95301;-69
2022/02/28 00:28:53;;;;;;;18.60;5.70;;;;;;;0.45;60.31;100360.73;106043;1274;112019;-70
2022/02/28 00:31:21;;;;;;;22.90;7.00;;;;;;;0.44;60.36;100362.48;106109;1274;97959;-70
2022/02/28 00:33:52;;;;;;;25.40;6.60;;;;;;;0.43;60.21;100359.70;106082;1274;107275;-70
2022/02/28 00:36:20;;;;;;;19.10;5.70;;;;;;;0.43;60.30;100361.09;106088;1274;97885;-70
2022/02/28 00:38:48;;;;;;;20.50;5.60;;;;;;;0.43;60.39;100359.02;106107;1274;98265;-69
2022/02/28 00:41:16;;;;;;;17.60;5.20;;;;;;;0.42;60.34;100360.58;106125;1274;111998;-69
2022/02/28 00:43:46;;;;;;;18.90;6.20;;;;;;;0.43;60.39;100357.61;106064;1274;97864;-70
2022/02/28 00:46:15;;;;;;;19.40;5.90;;;;;;;0.42;60.29;100359.88;106104;1274;106919;-70
2022/02/28 00:48:43;;;;;;;21.50;6.60;;;;;;;0.41;60.27;100358.84;106007;1274;97732;-70
2022/02/28 00:51:11;;;;;;;23.10;6.80;;;;;;;0.40;60.31;100353.46;106002;1274;97903;-69
2022/02/28 00:53:42;;;;;;;25.70;7.50;;;;;;;0.39;60.41;100356.44;106107;1274;112052;-69
2022/02/28 00:56:12;;;;;;;25.10;8.00;;;;;;;0.39;60.37;100353.83;106147;1274;96245;-68
2022/02/28 00:58:42;;;;;;;21.30;6.10;;;;;;;0.40;60.36;100350.67;106063;1274;109132;-66
2022/02/28 01:01:12;;;;;;;21.50;6.30;;;;;;;0.40;60.35;100348.91;105991;1274;97870;-68
2022/02/28 01:03:42;;;;;;;23.20;7.40;;;;;;;0.40;60.41;100345.77;106046;1274;96349;-69
2022/02/28 01:06:10;;;;;;;21.40;6.20;;;;;;;0.41;60.22;100344.20;106111;1274;112059;-71
2022/02/28 01:08:39;;;;;;;22.80;7.10;;;;;;;0.39;60.27;100342.30;106053;1274;97877;-68
2022/02/28 01:11:09;;;;;;;19.80;5.70;;;;;;;0.37;60.33;100344.23;106002;1274;108260;-68
2022/02/28 01:13:37;;;;;;;18.40;6.20;;;;;;;0.35;60.33;100345.83;106018;1274;96977;-68
2022/02/28 01:16:06;;;;;;;20.20;5.00;;;;;;;0.34;60.20;100344.27;106046;1274;95627;-68
2022/02/28 01:18:35;;;;;;;17.80;5.20;;;;;;;0.32;60.34;100340.80;106078;1274;112331;-69
2022/02/28 01:21:05;;;;;;;17.80;5.00;;;;;;;0.32;60.40;100341.15;106105;1275;95714;-69
2022/02/28 01:23:32;;;;;;;19.30;5.80;;;;;;;0.31;60.40;100339.77;106110;1275;109085;-71
2022/02/28 01:26:02;;;;;;;20.00;6.50;;;;;;;0.29;60.30;100337.69;106099;1274;97888;-71
2022/02/28 01:28:30;;;;;;;21.80;6.60;;;;;;;0.27;60.37;100336.65;106123;1274;97826;-69
2022/02/28 01:30:58;;;;;;;20.80;6.70;;;;;;;0.23;60.32;100335.13;106017;1274;112037;-71
2022/02/28 01:33:33;;;;;;;19.70;6.50;;;;;;;0.20;60.32;100334.11;106013;1275;97978;-70
2022/02/28 01:36:01;;;;;;;22.30;6.20;;;;;;;0.17;60.30;100333.27;105999;1275;105884;-69
2022/02/28 01:38:33;;;;;;;17.40;6.30;;;;;;;0.15;60.41;100334.34;105987;1274;97741;-71
2022/02/28 01:41:02;;;;;;;16.40;5.60;;;;;;;0.15;60.39;100334.52;105991;1274;97867;-69
2022/02/28 01:43:30;;;;;;;18.80;5.50;;;;;;;0.15;60.38;100340.97;105988;1276;112001;-69
2022/02/28 01:45:58;;;;;;;17.60;5.50;;;;;;;0.14;60.37;100340.27;106018;1274;96257;-68
2022/02/28 01:48:28;;;;;;;18.80;6.00;;;;;;;0.12;60.19;100345.35;106009;1274;108415;-69
2022/02/28 01:51:01;;;;;;;18.90;5.30;;;;;;;0.12;60.43;100347.61;106020;1275;98508;-67
2022/02/28 01:53:30;;;;;;;18.40;5.80;;;;;;;0.13;60.45;100346.04;106113;1274;98411;-69
2022/02/28 01:55:59;;;;;;;15.80;4.60;;;;;;;0.14;60.34;100347.08;106043;1272;111463;-69
2022/02/28 01:58:36;;;;;;;22.40;5.10;;;;;;;0.12;60.43;100347.26;105995;1274;97087;-68
2022/02/28 02:01:07;;;;;;;14.40;5.00;;;;;;;0.12;60.42;100353.38;105987;1274;107802;-66
2022/02/28 02:03:35;;;;;;;17.90;4.60;;;;;;;0.12;60.39;100356.85;105994;1274;97989;-68
2022/02/28 02:06:07;;;;;;;16.10;5.00;;;;;;;0.10;60.51;100354.09;105920;1276;97987;-69
2022/02/28 02:08:38;;;;;;;13.70;4.80;;;;;;;0.09;60.23;100347.83;106033;1274;111215;-70
2022/02/28 02:11:08;;;;;;;13.80;4.70;;;;;;;0.06;60.44;100345.73;106027;1274;97575;-71
2022/02/28 02:13:36;;;;;;;16.10;5.80;;;;;;;0.05;60.40;100343.14;105985;1274;107794;-69
2022/02/28 02:16:09;;;;;;;18.10;5.60;;;;;;;0.02;60.43;100343.17;106011;1275;97977;-68
2022/02/28 02:18:37;;;;;;;16.70;4.90;;;;;;;-0.01;60.29;100342.33;106037;1274;97872;-68
2022/02/28 02:21:08;;;;;;;17.50;5.40;;;;;;;-0.08;60.36;100346.73;106064;1275;112013;-68
2022/02/28 02:23:42;;;;;;;17.60;5.30;;;;;;;-0.11;60.44;100348.51;106027;1274;95453;-68
2022/02/28 02:26:14;;;;;;;17.00;5.40;;;;;;;-0.14;60.41;100347.32;106094;1275;107972;-68
2022/02/28 02:28:45;;;;;;;17.70;5.70;;;;;;;-0.18;60.39;100343.51;106079;1274;98378;-68
2022/02/28 02:31:13;;;;;;;17.40;5.70;;;;;;;-0.22;60.43;100334.30;106097;1274;97901;-69
2022/02/28 02:33:43;;;;;;;19.00;5.40;;;;;;;-0.25;60.31;100336.60;106155;1274;111944;-69
2022/02/28 02:36:18;;;;;;;19.30;5.80;;;;;;;-0.27;60.42;100338.36;106133;1274;98564;-70
2022/02/28 02:38:51;;;;;;;16.90;6.50;;;;;;;-0.31;60.37;100338.21;106018;1274;107752;-68
2022/02/28 02:41:22;;;;;;;15.50;4.80;;;;;;;-0.36;60.27;100335.10;106057;1274;98585;-69
2022/02/28 02:43:50;;;;;;;15.10;5.20;;;;;;;-0.41;60.32;100336.70;106041;1274;97828;-69
2022/02/28 02:46:20;;;;;;;20.00;6.90;;;;;;;-0.46;60.25;100340.92;106041;1274;111395;-69
2022/02/28 02:48:49;;;;;;;16.10;5.40;;;;;;;-0.49;60.25;100341.30;106011;1274;97986;-69
2022/02/28 02:51:19;;;;;;;16.40;5.10;;;;;;;-0.50;60.23;100348.29;105991;1275;108344;-70
2022/02/28 02:53:47;;;;;;;17.30;5.30;;;;;;;-0.55;60.14;100349.53;105986;1274;97742;-68
2022/02/28 02:56:19;;;;;;;15.60;4.90;;;;;;;-0.56;60.14;100349.02;106002;1276;95318;-70
2022/02/28 02:58:51;;;;;;;15.00;4.90;;;;;;;-0.58;60.23;100350.94;106028;1274;111947;-71
2022/02/28 03:01:22;;;;;;;15.40;5.40;;;;;;;-0.61;60.21;100349.04;106123;1274;97872;-71
2022/02/28 03:03:50;;;;;;;17.60;5.10;;;;;;;-0.64;60.37;100347.85;105994;1274;106572;-69
2022/02/28 03:06:24;;;;;;;14.10;4.40;;;;;;;-0.66;60.43;100344.89;106069;1274;97944;-69
2022/02/28 03:08:54;;;;;;;17.50;5.40;;;;;;;-0.68;60.42;100346.48;106011;1276;97863;-68
2022/02/28 03:11:24;;;;;;;19.00;6.10;;;;;;;-0.69;60.48;100344.91;106081;1274;112003;-70
2022/02/28 03:13:51;;;;;;;18.80;6.40;;;;;;;-0.71;60.62;100344.23;106016;1274;96339;-69
2022/02/28 03:16:21;;;;;;;15.50;5.80;;;;;;;-0.76;60.25;100342.69;106068;1271;108335;-69
2022/02/28 03:18:51;;;;;;;18.20;6.10;;;;;;;-0.81;60.52;100343.58;106096;1274;98479;-69
2022/02/28 03:21:19;;;;;;;18.20;6.20;;;;;;;-0.83;60.23;100348.14;106118;1274;96349;-68
2022/02/28 03:23:48;;;;;;;14.70;5.20;;;;;;;-0.87;60.08;100349.02;106109;1274;111548;-70
2022/02/28 03:26:16;;;;;;;17.00;5.30;;;;;;;-0.91;60.42;100350.77;106003;1275;98588;-70
2022/02/28 03:28:45;;;;;;;22.00;5.70;;;;;;;-0.95;60.46;100345.91;106073;1274;108418;-69
2022/02/28 03:31:13;;;;;;;14.00;5.30;;;;;;;-0.97;60.31;100347.32;105981;1274;97868;-70
2022/02/28 03:33:43;;;;;;;17.70;5.80;;;;;;;-0.98;60.65;100350.80;106002;1274;97886;-70
2022/02/28 03:36:11;;;;;;;20.30;6.60;;;;;;;-1.00;60.39;100349.26;105366;1274;802939;-69
2022/02/28 03:38:38;;;;;;;21.20;6.60;;;;;;;-1.04;60.57;100351.19;106002;1274;97843;-69
2022/02/28 03:41:08;;;;;;;23.90;6.90;;;;;;;-1.08;60.34;100350.68;106010;1274;108343;-69
2022/02/28 03:43:36;;;;;;;20.70;7.10;;;;;;;-1.12;60.54;100353.31;105984;1274;98555;-70
2022/02/28 03:46:04;;;;;;;21.70;6.20;;;;;;;-1.16;60.30;100354.90;106186;1274;95183;-68
2022/02/28 03:48:34;;;;;;;19.60;6.40;;;;;;;-1.22;60.48;100353.17;106138;1274;111964;-68
2022/02/28 03:51:04;;;;;;;21.60;5.80;;;;;;;-1.26;60.17;100360.33;106162;1274;97980;-68
2022/02/28 03:53:37;;;;;;;17.40;6.10;;;;;;;-1.31;60.28;100364.88;106121;1274;108435;-68
2022/02/28 03:56:06;;;;;;;19.40;7.40;;;;;;;-1.36;60.42;100366.63;106143;1274;98808;-67
2022/02/28 03:58:39;;;;;;;18.80;6.20;;;;;;;-1.42;60.21;100366.98;106124;1274;97969;-67
2022/02/28 04:01:09;;;;;;;19.80;6.70;;;;;;;-1.46;60.40;100370.31;106150;1274;111529;-67
2022/02/28 04:03:40;;;;;;;17.20;5.50;;;;;;;-1.50;60.14;100372.05;106127;1273;97874;-66
2022/02/28 04:06:08;;;;;;;21.60;6.40;;;;;;;-1.56;60.48;100375.36;106126;1273;108389;-66
2022/02/28 04:08:40;;;;;;;21.40;6.20;;;;;;;-1.57;60.17;100370.67;106143;1273;97889;-71
2022/02/28 04:11:10;;;;;;;19.20;6.30;;;;;;;-1.57;60.48;100377.63;106066;1274;96981;-68
2022/02/28 04:13:42;;;;;;;24.20;7.00;;;;;;;-1.57;60.55;100380.93;106126;1273;112054;-67
2022/02/28 04:16:10;;;;;;;20.00;6.30;;;;;;;-1.61;60.37;100382.16;106095;1276;97977;-69
2022/02/28 04:18:38;;;;;;;20.90;6.50;;;;;;;-1.64;60.45;100389.30;105970;1273;108427;-68
2022/02/28 04:21:07;;;;;;;22.40;9.40;;;;;;;-1.68;60.43;100382.00;106081;1273;95352;-68
2022/02/28 04:23:37;;;;;;;33.10;14.60;;;;;;;-1.69;60.40;100382.88;106116;1273;97831;-67
2022/02/28 04:26:05;;;;;;;36.10;19.10;;;;;;;-1.70;60.46;100385.13;106102;1274;109952;-69
2022/02/28 04:28:34;;;;;;;35.80;15.90;;;;;;;-1.71;60.21;100389.30;106114;1273;96323;-69
2022/02/28 04:31:04;;;;;;;30.60;12.60;;;;;;;-1.74;60.54;100391.05;106073;1273;108314;-69
2022/02/28 04:33:32;;;;;;;31.00;12.20;;;;;;;-1.79;60.54;100399.23;105990;1274;95364;-70
2022/02/28 04:35:59;;;;;;;29.10;11.10;;;;;;;-1.82;60.41;100398.19;105963;1274;95292;-68
2022/02/28 04:38:27;;;;;;;26.20;10.10;;;;;;;-1.83;60.29;100396.09;106004;1274;112737;-69
2022/02/28 04:40:57;;;;;;;25.70;9.00;;;;;;;-1.81;60.61;100402.01;105964;1274;97898;-70
2022/02/28 04:43:25;;;;;;;27.50;10.90;;;;;;;-1.82;60.23;100403.73;105978;1273;108091;-68
2022/02/28 04:45:55;;;;;;;28.30;10.80;;;;;;;-1.86;60.27;100403.77;105952;1274;97975;-67
2022/02/28 04:48:23;;;;;;;27.40;10.50;;;;;;;-1.88;60.31;100407.76;106004;1274;97840;-69
2022/02/28 04:50:55;;;;;;;29.90;11.10;;;;;;;-1.92;60.52;100409.84;105966;1275;112079;-67
2022/02/28 04:53:26;;;;;;;25.30;11.90;;;;;;;-1.95;60.34;100406.01;106000;1274;97871;-68
2022/02/28 04:55:54;;;;;;;24.70;9.80;;;;;;;-1.99;60.58;100403.05;106004;1274;108305;-67
2022/02/28 04:58:27;;;;;;;22.60;9.10;;;;;;;-2.01;60.79;100408.95;105987;1274;97936;-68
2022/02/28 05:00:56;;;;;;;22.70;8.40;;;;;;;-2.03;60.72;100410.02;106012;1276;97896;-67
2022/02/28 05:03:26;;;;;;;19.30;6.90;;;;;;;-2.05;60.43;100417.67;105972;1275;112172;-67
2022/02/28 05:05:57;;;;;;;19.30;6.80;;;;;;;-2.07;60.60;100414.70;105960;1274;97949;-66
2022/02/28 05:08:27;;;;;;;15.80;6.10;;;;;;;-2.10;60.41;100418.54;105958;1274;108390;-68
2022/02/28 05:10:58;;;;;;;18.40;6.20;;;;;;;-2.12;60.61;100421.65;105989;1274;97932;-68
2022/02/28 05:13:26;;;;;;;21.10;7.90;;;;;;;-2.13;60.49;100425.47;106089;1274;97947;-68
2022/02/28 05:15:54;;;;;;;22.70;8.80;;;;;;;-2.13;60.83;100431.20;106043;1274;112104;-68
2022/02/28 05:18:22;;;;;;;22.60;8.40;;;;;;;-2.15;60.64;100431.20;106042;1274;97858;-68
2022/02/28 05:20:51;;;;;;;25.50;9.20;;;;;;;-2.14;60.59;100429.65;106021;1276;108175;-68
2022/02/28 05:23:19;;;;;;;23.90;8.70;;;;;;;-2.15;60.81;100432.60;106003;1276;95345;-69
2022/02/28 05:25:49;;;;;;;24.40;9.60;;;;;;;-2.17;60.82;100435.71;106010;1276;98569;-69
2022/02/28 05:28:40;;;;;;;23.80;8.10;;;;;;;-2.19;60.69;100436.08;105988;1274;111987;-69
2022/02/28 05:31:08;;;;;;;20.40;7.80;;;;;;;-2.18;60.70;100434.49;106035;1273;98658;-69
2022/02/28 05:33:37;;;;;;;19.80;6.80;;;;;;;-2.19;60.60;100441.09;105995;1273;108280;-69
2022/02/28 05:36:08;;;;;;;20.40;7.10;;;;;;;-2.22;60.75;100439.17;106010;1273;97899;-69
2022/02/28 05:38:39;;;;;;;23.40;7.40;;;;;;;-2.25;60.67;100443.70;106042;1273;97917;-69
2022/02/28 05:41:07;;;;;;;25.80;8.50;;;;;;;-2.27;60.68;100445.27;106011;1274;110293;-69
2022/02/28 05:43:35;;;;;;;32.10;10.60;;;;;;;-2.28;60.87;100448.73;106030;1273;96238;-69
2022/02/28 05:46:09;;;;;;;46.40;12.90;;;;;;;-2.28;60.70;100449.42;105954;1274;108401;-68
2022/02/28 05:48:39;;;;;;;51.30;16.80;;;;;;;-2.28;61.00;100455.34;106032;1273;97949;-69
2022/02/28 05:51:12;;;;;;;54.20;17.50;;;;;;;-2.31;60.84;100456.02;106016;1273;97961;-70
2022/02/28 05:53:39;;;;;;;71.80;22.30;;;;;;;-2.31;60.74;100460.37;106115;1273;110849;-68
2022/02/28 05:56:12;;;;;;;65.80;20.50;;;;;;;-2.32;60.91;100464.70;105830;1273;97972;-68
2022/02/28 05:58:40;;;;;;;66.90;21.90;;;;;;;-2.32;61.03;100471.48;106047;1273;107851;-68
2022/02/28 06:01:08;;;;;;;79.90;26.00;;;;;;;-2.32;61.09;100469.75;106032;1273;98677;-69
2022/02/28 06:03:40;;;;;;;72.40;21.40;;;;;;;-2.31;61.08;100475.31;105975;1273;95347;-69
2022/02/28 06:06:09;;;;;;;45.40;14.00;;;;;;;-2.31;60.84;100481.73;105859;1273;112059;-70
2022/02/28 06:08:37;;;;;;;32.60;10.30;;;;;;;-2.32;60.79;100478.27;106031;1273;97742;-67
2022/02/28 06:11:07;;;;;;;27.40;9.70;;;;;;;-2.29;60.97;100483.49;106129;1273;108408;-69
2022/02/28 06:13:35;;;;;;;32.50;10.20;;;;;;;-2.29;60.68;100476.02;107440;1273;97854;-69
2022/02/28 06:16:03;;;;;;;26.90;9.90;;;;;;;-2.26;61.01;100480.89;106044;1273;97880;-71
2022/02/28 06:18:33;;;;;;;26.90;10.00;;;;;;;-2.24;61.10;100477.93;106082;1273;112639;-70
2022/02/28 06:21:00;;;;;;;27.80;9.80;;;;;;;-2.23;61.22;100478.45;106031;1273;97897;-69
2022/02/28 06:23:32;;;;;;;33.90;13.00;;;;;;;-2.22;61.17;100477.41;106046;1274;107404;-68
2022/02/28 06:26:00;;;;;;;41.30;12.30;;;;;;;-2.19;61.09;100481.25;106020;1273;98941;-69
2022/02/28 06:28:31;;;;;;;38.40;11.30;;;;;;;-2.18;61.29;100482.48;106034;1273;95265;-70
2022/02/28 06:31:03;;;;;;;33.10;11.10;;;;;;;-2.16;61.12;100485.78;105996;1273;111046;-68
2022/02/28 06:33:32;;;;;;;32.20;9.50;;;;;;;-2.15;61.00;100490.46;106058;1273;97876;-68
2022/02/28 06:36:02;;;;;;;28.90;10.60;;;;;;;-2.15;61.29;100488.73;105991;1273;108921;-69
2022/02/28 06:38:32;;;;;;;31.90;10.20;;;;;;;-2.14;61.17;100491.16;105933;1274;97948;-68
2022/02/28 06:41:00;;;;;;;32.00;10.50;;;;;;;-2.13;61.33;100495.86;106065;1273;97870;-68
2022/02/28 06:43:31;;;;;;;35.90;10.70;;;;;;;-2.12;61.27;100499.17;105998;1275;111959;-68
2022/02/28 06:45:59;;;;;;;32.40;10.70;;;;;;;-2.12;61.23;100502.48;106037;1274;97872;-67
2022/02/28 06:48:29;;;;;;;32.20;10.90;;;;;;;-2.11;61.27;100505.60;105956;1274;108887;-69
2022/02/28 06:50:57;;;;;;;29.90;10.50;;;;;;;-2.09;61.52;100504.56;105943;1273;97882;-69
2022/02/28 06:53:25;;;;;;;27.00;9.40;;;;;;;-2.05;61.24;100507.02;105945;1273;96396;-69
2022/02/28 06:55:54;;;;;;;27.80;10.00;;;;;;;-2.00;61.31;100507.18;106007;1274;110224;-67
2022/02/28 06:58:24;;;;;;;28.20;9.80;;;;;;;-1.91;61.36;100509.98;105960;1273;96125;-68
2022/02/28 07:00:54;;;;;;;26.00;9.20;;;;;;;-1.86;61.22;100515.39;106022;1273;108375;-69
2022/02/28 07:03:24;;;;;;;25.10;9.10;;;;;;;-1.80;61.30;100515.21;105959;1273;96262;-70
2022/02/28 07:05:58;;;;;;;26.20;9.40;;;;;;;-1.75;61.52;100513.83;105987;1274;95922;-71
2022/02/28 07:08:26;;;;;;;29.60;9.80;;;;;;;-1.70;61.38;100511.24;105946;1274;111456;-70
2022/02/28 07:10:53;;;;;;;24.60;9.40;;;;;;;-1.65;61.77;100513.33;106077;1274;97900;-70
2022/02/28 07:13:24;;;;;;;22.80;7.60;;;;;;;-1.61;61.53;100522.36;106054;1274;108445;-69
2022/02/28 07:15:55;;;;;;;23.90;8.30;;;;;;;-1.57;61.40;100514.71;106015;1274;97932;-74
2022/02/28 07:18:24;;;;;;;19.50;7.00;;;;;;;-1.54;61.29;100520.12;105973;1273;97953;-70
2022/02/28 07:20:52;;;;;;;24.00;7.90;;;;;;;-1.48;61.58;100522.56;105979;1277;112054;-69
2022/02/28 07:23:20;;;;;;;22.30;7.20;;;;;;;-1.41;61.91;100522.89;106038;1275;97901;-70
2022/02/28 07:25:48;;;;;;;27.40;9.70;;;;;;;-1.31;61.69;100530.38;106063;1274;108105;-70
2022/02/28 07:28:17;;;;;;;29.80;9.30;;;;;;;-1.22;61.87;100538.90;106051;1274;96970;-69
2022/02/28 07:30:45;;;;;;;26.10;9.60;;;;;;;-1.16;61.88;100540.11;106058;1273;97984;-68
2022/02/28 07:33:15;;;;;;;23.80;8.20;;;;;;;-1.11;62.09;100543.58;106110;1273;111944;-68
2022/02/28 07:35:43;;;;;;;24.20;8.80;;;;;;;-1.09;62.19;100544.64;106061;1273;97921;-68
2022/02/28 07:38:13;;;;;;;24.40;9.80;;;;;;;-1.06;62.09;100544.80;106055;1273;108542;-68
2022/02/28 07:40:41;;;;;;;28.20;12.10;;;;;;;-1.02;61.94;100549.52;106074;1273;97905;-68
2022/02/28 07:43:09;;;;;;;24.80;9.80;;;;;;;-1.02;62.09;100551.07;106052;1274;97882;-69
2022/02/28 07:45:36;;;;;;;25.50;9.40;;;;;;;-0.99;61.89;100557.32;106066;1273;112162;-69
2022/02/28 07:48:04;;;;;;;22.50;8.40;;;;;;;-0.96;62.33;100554.37;106068;1274;97896;-69
2022/02/28 07:50:34;;;;;;;24.40;9.00;;;;;;;-0.88;62.48;100556.63;106199;1273;108308;-68
2022/02/28 07:53:02;;;;;;;22.10;8.90;;;;;;;-0.82;62.15;100550.17;106110;1273;97952;-68
2022/02/28 07:55:30;;;;;;;21.60;8.00;;;;;;;-0.74;62.25;100549.79;106082;1273;97866;-68
2022/02/28 07:57:57;;;;;;;20.10;7.60;;;;;;;-0.63;62.49;100552.38;106072;1273;111955;-68
2022/02/28 08:00:25;;;;;;;24.10;8.50;;;;;;;-0.52;62.29;100552.18;106132;1273;97966;-70
2022/02/28 08:02:53;;;;;;;21.70;8.40;;;;;;;-0.45;62.28;100553.90;106043;1273;106677;-68
2022/02/28 08:05:23;;;;;;;21.50;8.70;;;;;;;-0.41;62.38;100556.84;106091;1273;99117;-68
2022/02/28 08:07:51;;;;;;;21.90;8.10;;;;;;;-0.38;62.53;100560.48;106026;1274;97852;-67
2022/02/28 08:10:22;;;;;;;22.30;8.00;;;;;;;-0.38;62.39;100566.59;106143;1273;112054;-67
2022/02/28 08:12:50;;;;;;;20.80;8.00;;;;;;;-0.43;62.44;100570.10;106029;1273;96234;-70
2022/02/28 08:15:18;;;;;;;21.80;8.70;;;;;;;-0.43;62.45;100569.76;106028;1273;108026;-69
2022/02/28 08:17:47;;;;;;;22.30;8.20;;;;;;;-0.42;62.61;100573.41;106141;1273;97945;-69
2022/02/28 08:20:17;;;;;;;21.20;7.60;;;;;;;-0.41;62.46;100576.02;106017;1274;97854;-69
2022/02/28 08:22:45;;;;;;;18.60;7.40;;;;;;;-0.41;62.73;100581.77;105976;1273;112005;-71
2022/02/28 08:25:16;;;;;;;21.90;8.50;;;;;;;-0.41;62.50;100577.94;105988;1274;97976;-68
2022/02/28 08:27:44;;;;;;;20.60;7.70;;;;;;;-0.38;62.62;100574.77;106051;1273;106342;-68
2022/02/28 08:30:16;;;;;;;19.30;7.60;;;;;;;-0.33;62.70;100571.28;106058;1274;97835;-68
2022/02/28 08:32:45;;;;;;;17.80;7.50;;;;;;;-0.27;62.83;100575.45;106177;1273;97874;-69
2022/02/28 08:35:18;;;;;;;18.80;7.00;;;;;;;-0.21;62.84;100575.08;106036;1274;112115;-68
2022/02/28 08:37:48;;;;;;;21.30;7.60;;;;;;;-0.15;63.06;100577.84;106038;1274;97887;-69
2022/02/28 08:40:16;;;;;;;20.70;8.00;;;;;;;-0.11;62.94;100579.21;105996;1274;109082;-69
2022/02/28 08:42:46;;;;;;;17.70;6.70;;;;;;;-0.03;62.95;100580.58;105888;1274;98024;-70
2022/02/28 08:45:17;;;;;;;15.30;5.80;;;;;;;0.18;63.14;100569.30;105992;1274;98509;-71
2022/02/28 08:47:45;;;;;;;22.20;8.70;;;;;;;0.42;63.36;100569.31;105998;1274;111311;-70
2022/02/28 08:50:16;;;;;;;20.40;7.80;;;;;;;0.64;63.23;100567.77;106092;1275;96455;-69
2022/02/28 08:52:47;;;;;;;20.60;7.90;;;;;;;0.81;63.30;100572.35;105996;1274;107598;-70
2022/02/28 08:55:15;;;;;;;19.90;7.10;;;;;;;0.88;63.21;100573.33;105998;1274;98053;-71
2022/02/28 08:57:43;;;;;;;18.60;7.00;;;;;;;0.86;63.30;100574.40;106036;1273;97873;-68
2022/02/28 09:00:13;;;;;;;18.30;6.80;;;;;;;0.77;63.17;100576.77;106044;1274;111434;-68
2022/02/28 09:02:41;;;;;;;18.90;7.80;;;;;;;0.72;63.22;100589.02;106017;1274;97838;-70
2022/02/28 09:05:13;;;;;;;22.90;8.50;;;;;;;0.66;63.09;100580.32;105958;1275;108398;-70
2022/02/28 09:07:41;;;;;;;24.10;8.00;;;;;;;0.63;63.20;100582.78;106016;1274;97853;-70
2022/02/28 09:10:11;;;;;;;20.40;7.90;;;;;;;0.64;63.26;100584.35;105965;1275;97887;-70
2022/02/28 09:12:41;;;;;;;24.40;9.20;;;;;;;0.65;63.33;100588.53;105975;1274;111325;-70
2022/02/28 09:15:09;;;;;;;23.50;8.70;;;;;;;0.66;63.33;100592.72;106077;1274;97891;-71
2022/02/28 09:17:39;;;;;;;26.80;8.80;;;;;;;0.69;63.40;100591.11;106001;1273;107728;-71
2022/02/28 09:20:08;;;;;;;21.10;7.90;;;;;;;0.67;63.20;100590.44;105946;1274;97951;-70
2022/02/28 09:22:40;;;;;;;23.00;7.40;;;;;;;0.68;63.41;100592.88;106051;1274;97864;-71
2022/02/28 09:25:11;;;;;;;21.20;7.10;;;;;;;0.68;63.35;100593.22;106103;1274;111392;-67
2022/02/28 09:27:41;;;;;;;18.90;6.30;;;;;;;0.63;63.28;100593.61;106099;1274;97918;-69
2022/02/28 09:30:21;;;;;;;19.50;7.40;;;;;;;0.57;63.23;100594.35;106117;1274;108281;-69
2022/02/28 09:32:51;;;;;;;21.90;8.70;;;;;;;0.61;63.43;100601.48;106036;1274;95369;-70
2022/02/28 09:35:20;;;;;;;22.90;8.70;;;;;;;0.67;63.48;100601.60;106101;1274;97997;-70
2022/02/28 09:37:48;;;;;;;22.30;8.00;;;;;;;0.70;63.58;100598.45;106041;1274;112054;-70
2022/02/28 09:40:17;;;;;;;23.70;7.60;;;;;;;0.65;63.38;100598.48;106065;1274;99063;-70
2022/02/28 09:42:48;;;;;;;20.00;7.10;;;;;;;0.70;63.52;100597.75;106101;1274;108409;-69
2022/02/28 09:45:19;;;;;;;21.90;7.60;;;;;;;0.86;63.49;100594.84;106143;1274;97940;-69
2022/02/28 09:47:49;;;;;;;20.50;7.10;;;;;;;1.08;63.76;100591.15;106123;1273;97811;-67
2022/02/28 09:50:19;;;;;;;22.90;7.40;;;;;;;1.61;64.23;100590.44;106166;1274;111708;-69
2022/02/28 09:52:48;;;;;;;20.00;6.80;;;;;;;2.05;64.08;100597.43;106101;1274;95293;-70
2022/02/28 09:55:16;;;;;;;20.70;7.80;;;;;;;2.18;64.01;100605.50;106104;1274;108296;-71
2022/02/28 09:57:51;;;;;;;20.60;7.70;;;;;;;2.17;63.81;100599.90;106105;1273;95273;-70
2022/02/28 10:00:25;;;;;;;17.90;6.70;;;;;;;2.15;63.60;100600.98;106153;1274;97870;-69
2022/02/28 10:02:56;;;;;;;22.70;6.50;;;;;;;2.14;63.85;100600.65;106048;1274;111406;-69
2022/02/28 10:05:27;;;;;;;19.20;6.20;;;;;;;2.15;63.56;100602.90;106244;1274;95823;-70
2022/02/28 10:07:58;;;;;;;18.20;6.50;;;;;;;2.23;63.75;100601.92;106179;1274;107269;-68
2022/02/28 10:10:28;;;;;;;17.00;6.20;;;;;;;2.30;63.75;100600.25;105949;1274;97237;-69
2022/02/28 10:12:56;;;;;;;17.90;6.30;;;;;;;2.35;63.84;100603.67;106100;1273;95266;-67
2022/02/28 10:15:26;;;;;;;21.60;6.70;;;;;;;2.34;63.72;100603.35;106092;1274;111998;-69
2022/02/28 10:17:58;;;;;;;16.30;6.50;;;;;;;2.30;63.94;100609.70;106055;1274;98000;-70
2022/02/28 10:20:31;;;;;;;20.60;7.00;;;;;;;2.30;64.04;100614.42;106118;1274;107688;-69
2022/02/28 10:23:04;;;;;;;18.60;6.60;;;;;;;2.29;63.69;100612.70;106117;1274;97945;-70
2022/02/28 10:25:44;;;;;;;19.10;7.10;;;;;;;2.21;63.83;100618.05;106047;1274;97857;-71
2022/02/28 10:28:20;;;;;;;17.50;6.30;;;;;;;2.18;63.72;100620.55;106181;1273;111978;-71
2022/02/28 10:30:51;;;;;;;17.30;6.50;;;;;;;2.14;63.88;100622.52;106135;1274;95920;-70
2022/02/28 10:33:29;;;;;;;21.70;7.30;;;;;;;2.07;63.56;100623.98;106088;1274;107707;-70
2022/02/28 10:36:13;;;;;;;16.10;6.40;;;;;;;2.01;63.83;100628.63;106161;1273;97895;-70
2022/02/28 10:38:46;;;;;;;17.20;5.90;;;;;;;1.94;63.69;100627.66;106188;1274;97746;-69
2022/02/28 10:41:37;;;;;;;18.10;6.50;;;;;;;1.83;63.31;100628.85;106157;1273;111382;-70
2022/02/28 10:44:13;;;;;;;21.60;7.70;;;;;;;1.72;63.30;100628.96;106199;1273;97794;-70
2022/02/28 10:46:46;;;;;;;20.70;7.50;;;;;;;1.71;63.62;100632.65;106113;1274;107753;-69
2022/02/28 10:49:33;;;;;;;20.30;8.60;;;;;;;1.73;63.60;100630.70;106079;1274;97993;-71
2022/02/28 10:52:09;;;;;;;20.40;7.30;;;;;;;1.77;63.44;100629.09;106054;1275;97849;-71
2022/02/28 10:54:40;;;;;;;17.10;6.60;;;;;;;1.82;63.53;100626.58;106065;1275;110748;-72
2022/02/28 10:57:16;;;;;;;15.60;6.50;;;;;;;1.87;63.66;100626.87;105981;1276;97895;-69
2022/02/28 10:59:50;;;;;;;18.70;6.80;;;;;;;1.93;63.82;100629.08;106189;1274;107702;-70
2022/02/28 11:02:27;;;;;;;17.30;6.30;;;;;;;1.96;63.78;100630.62;105978;1274;97853;-69
2022/02/28 11:05:07;;;;;;;17.80;6.70;;;;;;;1.96;63.57;100626.93;106159;1274;95325;-69
2022/02/28 11:07:47;;;;;;;20.30;7.20;;;;;;;1.99;63.77;100633.92;106013;1274;111517;-68
2022/02/28 11:10:17;;;;;;;20.80;7.50;;;;;;;2.01;63.52;100631.25;106077;1274;97969;-70
2022/02/28 11:12:50;;;;;;;21.90;8.10;;;;;;;2.02;63.49;100629.31;106070;1274;108377;-70
2022/02/28 11:15:21;;;;;;;20.80;7.70;;;;;;;2.04;63.57;100632.96;105960;1276;98034;-71
2022/02/28 11:17:52;;;;;;;24.00;8.40;;;;;;;2.07;63.46;100633.45;106047;1274;97878;-71
2022/02/28 11:20:22;;;;;;;28.50;11.00;;;;;;;2.12;63.78;100632.52;106050;1274;112052;-71
2022/02/28 11:22:53;;;;;;;23.30;8.70;;;;;;;2.13;63.58;100633.56;106009;1276;98056;-71